createdAt,value
2017-12-22T00:00:51.618Z,0
2017-12-22T00:01:59.705Z,0
2017-12-22T00:03:07.790Z,0
2017-12-22T00:04:15.874Z,0
2017-12-22T00:05:23.974Z,0
2017-12-22T00:06:32.055Z,0
2017-12-22T00:07:40.131Z,0
2017-12-22T00:08:48.239Z,0
2017-12-22T00:09:56.355Z,0
2017-12-22T00:11:04.410Z,0
2017-12-22T00:12:12.493Z,0
2017-12-22T00:13:20.589Z,0
2017-12-22T00:14:28.689Z,0
2017-12-22T00:15:36.761Z,0
2017-12-22T00:16:44.844Z,0
2017-12-22T00:17:52.946Z,0
2017-12-22T00:19:01.019Z,0
2017-12-22T00:20:09.114Z,0
2017-12-22T00:21:17.202Z,0
2017-12-22T00:22:25.289Z,0
2017-12-22T00:23:33.377Z,0
2017-12-22T00:24:41.468Z,0
2017-12-22T00:25:49.545Z,0
2017-12-22T00:26:57.631Z,0
2017-12-22T00:28:05.726Z,0
2017-12-22T00:29:13.813Z,0
2017-12-22T00:30:21.900Z,0
2017-12-22T00:31:29.997Z,0
2017-12-22T00:32:38.074Z,0
2017-12-22T00:33:47.749Z,0
2017-12-22T00:34:55.835Z,0
2017-12-22T00:36:03.923Z,0
2017-12-22T00:37:12.008Z,0
2017-12-22T00:38:20.091Z,0
2017-12-22T00:39:28.181Z,0
2017-12-22T00:40:36.275Z,0
2017-12-22T00:41:44.363Z,0
2017-12-22T00:42:52.448Z,0
2017-12-22T00:44:00.534Z,0
2017-12-22T00:45:08.623Z,0
2017-12-22T00:46:16.705Z,0
2017-12-22T00:47:24.791Z,0
2017-12-22T00:48:32.881Z,0
2017-12-22T00:49:40.969Z,0
2017-12-22T00:50:49.054Z,0
2017-12-22T00:51:57.140Z,0
2017-12-22T00:53:05.234Z,0
2017-12-22T00:54:13.319Z,0
2017-12-22T00:55:21.400Z,0
2017-12-22T00:56:29.490Z,0
2017-12-22T00:57:37.571Z,0
2017-12-22T00:58:45.658Z,0
2017-12-22T00:59:53.745Z,0
2017-12-22T01:01:01.831Z,0
2017-12-22T01:02:09.918Z,0
2017-12-22T01:03:18.005Z,0
2017-12-22T01:04:26.088Z,0
2017-12-22T01:05:34.175Z,0
2017-12-22T01:06:42.267Z,0
2017-12-22T01:07:50.352Z,0
2017-12-22T01:08:58.445Z,0
2017-12-22T01:10:06.730Z,0
2017-12-22T01:11:14.618Z,0
2017-12-22T01:12:22.705Z,0
2017-12-22T01:13:30.790Z,0
2017-12-22T01:14:38.881Z,0
2017-12-22T01:15:46.968Z,0
2017-12-22T01:16:55.053Z,0
2017-12-22T01:18:03.145Z,0
2017-12-22T01:19:11.227Z,0
2017-12-22T01:20:19.331Z,0
2017-12-22T01:21:27.398Z,0
2017-12-22T01:22:35.486Z,0
2017-12-22T01:23:43.584Z,0
2017-12-22T01:24:51.660Z,0
2017-12-22T01:25:59.749Z,0
2017-12-22T01:27:07.832Z,0
2017-12-22T01:28:15.920Z,0
2017-12-22T01:29:24.006Z,0
2017-12-22T01:30:32.099Z,0
2017-12-22T01:31:40.187Z,0
2017-12-22T01:32:48.685Z,0
2017-12-22T01:33:56.772Z,0
2017-12-22T01:35:04.859Z,0
2017-12-22T01:36:12.949Z,0
2017-12-22T01:37:21.038Z,0
2017-12-22T01:38:29.124Z,0
2017-12-22T01:39:37.212Z,0
2017-12-22T01:40:45.300Z,0
2017-12-22T01:41:53.385Z,0
2017-12-22T01:43:01.469Z,0
2017-12-22T01:44:09.558Z,0
2017-12-22T01:45:17.645Z,0
2017-12-22T01:46:25.736Z,0
2017-12-22T01:47:33.822Z,0
2017-12-22T01:48:41.907Z,0
2017-12-22T01:49:49.998Z,0
2017-12-22T01:50:58.079Z,0
2017-12-22T01:52:06.190Z,0
2017-12-22T01:53:14.254Z,0
2017-12-22T01:54:22.346Z,0
2017-12-22T01:55:30.429Z,0
2017-12-22T01:56:38.524Z,0
2017-12-22T01:57:46.598Z,0
2017-12-22T01:58:54.687Z,0
2017-12-22T02:00:02.774Z,0
2017-12-22T02:01:10.857Z,0
2017-12-22T02:02:18.947Z,0
2017-12-22T02:03:27.037Z,0
2017-12-22T02:04:35.119Z,0
2017-12-22T02:05:43.216Z,0
2017-12-22T02:06:51.565Z,0
2017-12-22T02:07:59.662Z,0
2017-12-22T02:09:07.743Z,0
2017-12-22T02:10:15.834Z,0
2017-12-22T02:11:23.916Z,0
2017-12-22T02:12:32.003Z,0
2017-12-22T02:13:40.088Z,0
2017-12-22T02:14:48.191Z,0
2017-12-22T02:15:56.266Z,0
2017-12-22T02:17:04.350Z,0
2017-12-22T02:18:12.437Z,0
2017-12-22T02:19:20.541Z,0
2017-12-22T02:20:28.610Z,0
2017-12-22T02:21:36.703Z,0
2017-12-22T02:22:44.913Z,0
2017-12-22T02:23:52.999Z,0
2017-12-22T02:25:01.085Z,0
2017-12-22T02:26:09.174Z,0
2017-12-22T02:27:17.268Z,0
2017-12-22T02:28:25.346Z,0
2017-12-22T02:29:33.514Z,0
2017-12-22T02:30:41.602Z,0
2017-12-22T02:31:49.689Z,0
2017-12-22T02:32:57.776Z,0
2017-12-22T02:34:05.860Z,0
2017-12-22T02:35:13.946Z,0
2017-12-22T02:36:22.044Z,0
2017-12-22T02:37:30.130Z,0
2017-12-22T02:38:38.216Z,0
2017-12-22T02:39:46.303Z,0
2017-12-22T02:40:54.388Z,0
2017-12-22T02:42:02.479Z,0
2017-12-22T02:43:10.555Z,0
2017-12-22T02:44:18.652Z,0
2017-12-22T02:45:26.747Z,0
2017-12-22T02:46:34.831Z,0
2017-12-22T02:47:42.912Z,0
2017-12-22T02:48:51.002Z,0
2017-12-22T02:49:59.083Z,0
2017-12-22T02:51:07.172Z,0
2017-12-22T02:52:15.259Z,0
2017-12-22T02:53:23.347Z,0
2017-12-22T02:54:31.434Z,0
2017-12-22T02:55:39.521Z,0
2017-12-22T02:56:47.606Z,0
2017-12-22T02:57:55.693Z,0
2017-12-22T02:59:03.778Z,0
2017-12-22T03:00:11.865Z,0
2017-12-22T03:01:19.952Z,0
2017-12-22T03:02:28.038Z,0
2017-12-22T03:03:36.124Z,0
2017-12-22T03:04:44.208Z,0
2017-12-22T03:05:52.298Z,0
2017-12-22T03:07:00.386Z,0
2017-12-22T03:08:08.479Z,0
2017-12-22T03:09:16.556Z,0
2017-12-22T03:10:24.642Z,0
2017-12-22T03:11:32.734Z,0
2017-12-22T03:12:40.817Z,0
2017-12-22T03:13:48.904Z,0
2017-12-22T03:14:56.989Z,0
2017-12-22T03:16:05.077Z,0
2017-12-22T03:17:13.187Z,0
2017-12-22T03:18:21.254Z,0
2017-12-22T03:19:29.342Z,0
2017-12-22T03:20:37.429Z,0
2017-12-22T03:21:45.512Z,0
2017-12-22T03:22:53.598Z,0
2017-12-22T03:24:01.685Z,0
2017-12-22T03:25:09.772Z,0
2017-12-22T03:26:17.859Z,0
2017-12-22T03:27:25.946Z,0
2017-12-22T03:28:34.036Z,0
2017-12-22T03:29:42.129Z,0
2017-12-22T03:30:50.251Z,0
2017-12-22T03:31:58.307Z,0
2017-12-22T03:33:06.394Z,0
2017-12-22T03:34:14.476Z,0
2017-12-22T03:35:22.565Z,0
2017-12-22T03:36:30.650Z,0
2017-12-22T03:37:38.737Z,0
2017-12-22T03:38:46.824Z,0
2017-12-22T03:39:54.910Z,0
2017-12-22T03:41:02.995Z,0
2017-12-22T03:42:11.084Z,0
2017-12-22T03:43:19.170Z,0
2017-12-22T03:44:27.253Z,0
2017-12-22T03:45:35.354Z,0
2017-12-22T03:46:43.426Z,0
2017-12-22T03:47:51.668Z,0
2017-12-22T03:48:59.752Z,0
2017-12-22T03:50:07.845Z,0
2017-12-22T03:51:15.950Z,0
2017-12-22T03:52:24.025Z,0
2017-12-22T03:53:32.112Z,0
2017-12-22T03:54:40.207Z,0
2017-12-22T03:55:48.505Z,0
2017-12-22T03:56:56.370Z,0
2017-12-22T03:58:04.462Z,0
2017-12-22T03:59:12.544Z,0
2017-12-22T04:00:20.628Z,0
2017-12-22T04:01:28.715Z,0
2017-12-22T04:02:36.801Z,0
2017-12-22T04:03:44.887Z,0
2017-12-22T04:04:52.972Z,0
2017-12-22T04:06:01.074Z,0
2017-12-22T04:07:09.143Z,0
2017-12-22T04:08:17.247Z,0
2017-12-22T04:09:25.318Z,0
2017-12-22T04:10:33.403Z,0
2017-12-22T04:11:41.492Z,0
2017-12-22T04:12:49.653Z,0
2017-12-22T04:13:57.740Z,0
2017-12-22T04:15:05.827Z,0
2017-12-22T04:16:13.912Z,0
2017-12-22T04:17:21.995Z,0
2017-12-22T04:18:30.086Z,0
2017-12-22T04:19:38.185Z,0
2017-12-22T04:20:46.265Z,0
2017-12-22T04:21:54.351Z,0
2017-12-22T04:23:02.453Z,0
2017-12-22T04:24:10.521Z,0
2017-12-22T04:25:18.838Z,0
2017-12-22T04:26:26.924Z,0
2017-12-22T04:27:35.014Z,0
2017-12-22T04:28:43.097Z,0
2017-12-22T04:29:51.184Z,0
2017-12-22T04:30:59.265Z,0
2017-12-22T04:32:07.355Z,0
2017-12-22T04:33:15.437Z,0
2017-12-22T04:34:23.528Z,0
2017-12-22T04:35:31.606Z,0
2017-12-22T04:36:39.699Z,0
2017-12-22T04:37:47.785Z,0
2017-12-22T04:38:55.871Z,0
2017-12-22T04:40:04.770Z,0
2017-12-22T04:41:12.603Z,0
2017-12-22T04:42:20.689Z,0
2017-12-22T04:43:28.775Z,0
2017-12-22T04:44:36.864Z,0
2017-12-22T04:45:44.945Z,0
2017-12-22T04:46:53.029Z,0
2017-12-22T04:48:01.115Z,0
2017-12-22T04:49:09.248Z,0
2017-12-22T04:50:17.294Z,0
2017-12-22T04:51:25.406Z,0
2017-12-22T04:52:33.495Z,0
2017-12-22T04:53:41.566Z,0
2017-12-22T04:54:49.651Z,0
2017-12-22T04:55:57.738Z,0
2017-12-22T04:57:05.823Z,0
2017-12-22T04:58:13.924Z,0
2017-12-22T04:59:22.046Z,0
2017-12-22T05:00:30.099Z,0
2017-12-22T05:01:38.189Z,0
2017-12-22T05:02:46.274Z,0
2017-12-22T05:03:54.356Z,0
2017-12-22T05:05:02.442Z,0
2017-12-22T05:06:10.525Z,0
2017-12-22T05:07:18.612Z,0
2017-12-22T05:08:26.695Z,0
2017-12-22T05:09:34.887Z,0
2017-12-22T05:10:42.970Z,0
2017-12-22T05:11:51.061Z,0
2017-12-22T05:12:59.142Z,0
2017-12-22T05:14:07.247Z,0
2017-12-22T05:15:15.322Z,0
2017-12-22T05:16:23.406Z,0
2017-12-22T05:17:31.492Z,0
2017-12-22T05:18:39.576Z,0
2017-12-22T05:19:47.661Z,0
2017-12-22T05:20:55.745Z,0
2017-12-22T05:22:04.060Z,0
2017-12-22T05:23:11.928Z,0
2017-12-22T05:24:20.012Z,0
2017-12-22T05:25:33.498Z,0
2017-12-22T05:26:41.584Z,0
2017-12-22T05:27:49.669Z,0
2017-12-22T05:28:57.755Z,0
2017-12-22T05:30:05.838Z,0
2017-12-22T05:31:13.924Z,0
2017-12-22T05:32:22.014Z,0
2017-12-22T05:33:30.100Z,0
2017-12-22T05:34:38.186Z,0
2017-12-22T05:35:46.406Z,0
2017-12-22T05:36:54.542Z,0
2017-12-22T05:38:02.575Z,0
2017-12-22T05:39:10.661Z,0
2017-12-22T05:40:18.745Z,0
2017-12-22T05:41:26.832Z,0
2017-12-22T05:42:34.918Z,0
2017-12-22T05:43:43.010Z,0
2017-12-22T05:44:51.106Z,0
2017-12-22T05:45:59.192Z,0
2017-12-22T05:47:07.280Z,0
2017-12-22T05:48:15.372Z,0
2017-12-22T05:49:23.518Z,0
2017-12-22T05:50:31.543Z,0
2017-12-22T05:51:39.631Z,0
2017-12-22T05:52:47.716Z,0
2017-12-22T05:53:55.803Z,0
2017-12-22T05:55:03.914Z,0
2017-12-22T05:56:11.983Z,0
2017-12-22T05:57:20.058Z,0
2017-12-22T05:58:28.145Z,0
2017-12-22T05:59:36.240Z,0
2017-12-22T06:00:44.314Z,0
2017-12-22T06:01:52.399Z,0
2017-12-22T06:03:00.686Z,0
2017-12-22T06:04:10.421Z,0
2017-12-22T06:05:19.874Z,0
2017-12-22T06:06:24.937Z,0
2017-12-22T06:07:33.015Z,0
2017-12-22T06:08:41.079Z,0
2017-12-22T06:09:49.201Z,0
2017-12-22T06:10:57.379Z,0
2017-12-22T06:12:05.471Z,0
2017-12-22T06:13:13.527Z,0
2017-12-22T06:14:21.658Z,0
2017-12-22T06:15:29.485Z,0
2017-12-22T06:16:37.574Z,0
2017-12-22T06:17:45.717Z,0
2017-12-22T06:18:54.104Z,0
2017-12-22T06:20:02.187Z,0
2017-12-22T06:21:10.269Z,0
2017-12-22T06:22:18.380Z,0
2017-12-22T06:23:26.442Z,0
2017-12-22T06:24:34.526Z,0
2017-12-22T06:25:42.633Z,0
2017-12-22T06:26:50.697Z,0
2017-12-22T06:27:58.783Z,0
2017-12-22T06:29:06.869Z,0
2017-12-22T06:30:14.952Z,0
2017-12-22T06:31:23.042Z,0
2017-12-22T06:32:31.125Z,0
2017-12-22T06:33:39.228Z,0
2017-12-22T06:34:47.301Z,0
2017-12-22T06:35:55.380Z,0
2017-12-22T06:37:03.471Z,0
2017-12-22T06:38:11.552Z,0
2017-12-22T06:39:19.634Z,0
2017-12-22T06:40:27.720Z,0
2017-12-22T06:41:35.806Z,0
2017-12-22T06:42:43.894Z,0
2017-12-22T06:43:51.975Z,0
2017-12-22T06:45:00.058Z,0
2017-12-22T06:46:08.145Z,0
2017-12-22T06:47:16.231Z,0
2017-12-22T06:48:24.316Z,0
2017-12-22T06:49:32.401Z,0
2017-12-22T06:50:40.486Z,0
2017-12-22T06:51:48.577Z,0
2017-12-22T06:52:56.745Z,0
2017-12-22T06:54:04.741Z,0
2017-12-22T06:55:12.830Z,0
2017-12-22T06:56:20.912Z,0
2017-12-22T06:57:29.001Z,0
2017-12-22T06:58:37.085Z,0
2017-12-22T06:59:45.173Z,0
2017-12-22T07:00:53.258Z,0
2017-12-22T07:02:01.343Z,0
2017-12-22T07:03:09.430Z,0
2017-12-22T07:04:17.516Z,0
2017-12-22T07:05:25.604Z,0
2017-12-22T07:06:33.682Z,0
2017-12-22T07:07:41.769Z,0
2017-12-22T07:08:49.852Z,0
2017-12-22T07:09:57.938Z,0
2017-12-22T07:11:06.023Z,0
2017-12-22T07:12:14.110Z,0
2017-12-22T07:13:22.200Z,0
2017-12-22T07:14:30.286Z,0
2017-12-22T07:15:38.370Z,0
2017-12-22T07:16:46.450Z,0
2017-12-22T07:17:54.534Z,4
2017-12-22T07:19:02.674Z,4
2017-12-22T07:20:10.709Z,4
2017-12-22T07:21:18.792Z,4
2017-12-22T07:22:26.926Z,4
2017-12-22T07:23:34.962Z,4
2017-12-22T07:24:43.050Z,4
2017-12-22T07:25:51.134Z,4
2017-12-22T07:26:59.224Z,4
2017-12-22T07:28:07.304Z,0
2017-12-22T07:29:15.387Z,0
2017-12-22T07:30:23.473Z,0
2017-12-22T07:31:31.880Z,0
2017-12-22T07:32:39.966Z,0
2017-12-22T07:33:48.049Z,0
2017-12-22T07:34:56.133Z,0
2017-12-22T07:36:04.225Z,0
2017-12-22T07:37:12.317Z,0
2017-12-22T07:38:20.400Z,4
2017-12-22T07:39:28.487Z,4
2017-12-22T07:40:36.584Z,4
2017-12-22T07:41:44.657Z,4
2017-12-22T07:42:52.740Z,4
2017-12-22T07:44:00.826Z,4
2017-12-22T07:45:08.916Z,4
2017-12-22T07:46:16.998Z,4
2017-12-22T07:47:25.083Z,4
2017-12-22T07:48:33.173Z,4
2017-12-22T07:49:41.259Z,4
2017-12-22T07:50:49.339Z,0
2017-12-22T07:51:57.429Z,4
2017-12-22T07:53:05.516Z,4
2017-12-22T07:54:13.594Z,4
2017-12-22T07:55:21.681Z,4
2017-12-22T07:56:29.770Z,4
2017-12-22T07:57:37.854Z,8
2017-12-22T07:58:45.941Z,4
2017-12-22T07:59:54.027Z,4
2017-12-22T08:01:02.114Z,8
2017-12-22T08:02:10.201Z,4
2017-12-22T08:03:18.286Z,4
2017-12-22T08:04:26.436Z,8
2017-12-22T08:05:34.455Z,8
2017-12-22T08:06:42.542Z,8
2017-12-22T08:07:50.631Z,8
2017-12-22T08:08:58.713Z,12
2017-12-22T08:10:06.799Z,8
2017-12-22T08:11:14.887Z,8
2017-12-22T08:12:22.972Z,12
2017-12-22T08:13:31.056Z,8
2017-12-22T08:14:39.141Z,12
2017-12-22T08:15:47.292Z,12
2017-12-22T08:16:55.313Z,16
2017-12-22T08:18:03.399Z,12
2017-12-22T08:19:11.487Z,16
2017-12-22T08:20:19.574Z,16
2017-12-22T08:21:27.659Z,12
2017-12-22T08:22:35.744Z,12
2017-12-22T08:23:43.835Z,16
2017-12-22T08:24:51.923Z,16
2017-12-22T08:26:00.002Z,16
2017-12-22T08:27:08.091Z,20
2017-12-22T08:28:16.175Z,20
2017-12-22T08:29:24.268Z,16
2017-12-22T08:30:32.355Z,16
2017-12-22T08:31:40.452Z,16
2017-12-22T08:32:48.540Z,16
2017-12-22T08:33:56.625Z,16
2017-12-22T08:35:04.711Z,16
2017-12-22T08:36:12.798Z,16
2017-12-22T08:37:20.887Z,20
2017-12-22T08:38:28.971Z,16
2017-12-22T08:39:37.056Z,20
2017-12-22T08:40:45.163Z,16
2017-12-22T08:41:53.228Z,16
2017-12-22T08:43:01.336Z,16
2017-12-22T08:44:09.402Z,20
2017-12-22T08:45:17.488Z,16
2017-12-22T08:46:25.575Z,16
2017-12-22T08:47:33.662Z,16
2017-12-22T08:48:41.747Z,16
2017-12-22T08:49:49.843Z,16
2017-12-22T08:50:57.929Z,20
2017-12-22T08:52:06.022Z,16
2017-12-22T08:53:14.122Z,16
2017-12-22T08:54:22.206Z,16
2017-12-22T08:55:30.286Z,12
2017-12-22T08:56:38.371Z,12
2017-12-22T08:57:46.818Z,12
2017-12-22T08:58:54.907Z,12
2017-12-22T09:00:02.988Z,12
2017-12-22T09:01:11.085Z,16
2017-12-22T09:02:19.172Z,16
2017-12-22T09:03:27.252Z,16
2017-12-22T09:04:35.343Z,16
2017-12-22T09:05:43.428Z,12
2017-12-22T09:06:51.524Z,16
2017-12-22T09:07:59.609Z,16
2017-12-22T09:09:07.697Z,16
2017-12-22T09:10:15.784Z,16
2017-12-22T09:11:23.872Z,20
2017-12-22T09:12:31.961Z,20
2017-12-22T09:13:40.043Z,24
2017-12-22T09:14:48.131Z,24
2017-12-22T09:15:56.228Z,20
2017-12-22T09:17:04.304Z,24
2017-12-22T09:18:12.406Z,24
2017-12-22T09:19:20.480Z,24
2017-12-22T09:20:28.572Z,28
2017-12-22T09:21:36.662Z,32
2017-12-22T09:22:44.745Z,32
2017-12-22T09:23:52.831Z,32
2017-12-22T09:25:01.130Z,32
2017-12-22T09:26:09.006Z,36
2017-12-22T09:27:17.108Z,32
2017-12-22T09:28:25.184Z,36
2017-12-22T09:29:33.288Z,32
2017-12-22T09:30:41.369Z,32
2017-12-22T09:31:49.436Z,28
2017-12-22T09:32:57.524Z,32
2017-12-22T09:34:05.613Z,28
2017-12-22T09:35:13.695Z,28
2017-12-22T09:36:21.782Z,28
2017-12-22T09:37:29.891Z,24
2017-12-22T09:38:37.979Z,28
2017-12-22T09:39:46.061Z,28
2017-12-22T09:40:54.151Z,24
2017-12-22T09:42:02.245Z,24
2017-12-22T09:43:10.324Z,24
2017-12-22T09:44:18.411Z,24
2017-12-22T09:45:26.500Z,24
2017-12-22T09:46:34.584Z,24
2017-12-22T09:47:42.734Z,24
2017-12-22T09:48:50.822Z,28
2017-12-22T09:49:58.907Z,28
2017-12-22T09:51:06.999Z,28
2017-12-22T09:52:15.082Z,28
2017-12-22T09:53:23.171Z,28
2017-12-22T09:54:31.255Z,32
2017-12-22T09:55:39.339Z,32
2017-12-22T09:56:47.437Z,32
2017-12-22T09:57:55.512Z,32
2017-12-22T09:59:03.598Z,32
2017-12-22T10:00:11.710Z,28
2017-12-22T10:01:19.774Z,28
2017-12-22T10:02:27.856Z,28
2017-12-22T10:03:35.945Z,24
2017-12-22T10:04:44.031Z,24
2017-12-22T10:05:52.118Z,20
2017-12-22T10:07:00.215Z,20
2017-12-22T10:08:08.293Z,20
2017-12-22T10:09:16.380Z,20
2017-12-22T10:10:24.466Z,20
2017-12-22T10:11:32.553Z,20
2017-12-22T10:12:40.638Z,20
2017-12-22T10:13:48.726Z,20
2017-12-22T10:14:56.813Z,16
2017-12-22T10:16:04.920Z,20
2017-12-22T10:17:12.987Z,20
2017-12-22T10:18:21.074Z,20
2017-12-22T10:19:29.164Z,24
2017-12-22T10:20:37.250Z,24
2017-12-22T10:21:45.332Z,24
2017-12-22T10:22:53.418Z,28
2017-12-22T10:24:01.510Z,28
2017-12-22T10:25:09.591Z,28
2017-12-22T10:26:17.686Z,32
2017-12-22T10:27:25.767Z,32
2017-12-22T10:28:33.853Z,32
2017-12-22T10:29:41.939Z,32
2017-12-22T10:30:50.027Z,32
2017-12-22T10:31:58.113Z,32
2017-12-22T10:33:06.217Z,28
2017-12-22T10:34:14.303Z,32
2017-12-22T10:35:22.394Z,24
2017-12-22T10:36:30.475Z,24
2017-12-22T10:37:38.567Z,24
2017-12-22T10:38:46.647Z,24
2017-12-22T10:39:54.744Z,24
2017-12-22T10:41:02.835Z,24
2017-12-22T10:42:10.920Z,24
2017-12-22T10:43:19.010Z,28
2017-12-22T10:44:27.092Z,24
2017-12-22T10:45:35.176Z,24
2017-12-22T10:46:43.264Z,24
2017-12-22T10:47:51.350Z,24
2017-12-22T10:48:59.436Z,24
2017-12-22T10:50:07.618Z,20
2017-12-22T10:51:15.629Z,20
2017-12-22T10:52:23.713Z,20
2017-12-22T10:53:31.799Z,16
2017-12-22T10:54:39.887Z,20
2017-12-22T10:55:47.971Z,20
2017-12-22T10:56:56.059Z,24
2017-12-22T10:58:04.145Z,24
2017-12-22T10:59:12.231Z,24
2017-12-22T11:00:20.324Z,24
2017-12-22T11:01:28.673Z,24
2017-12-22T11:02:36.492Z,28
2017-12-22T11:03:44.578Z,24
2017-12-22T11:04:52.685Z,28
2017-12-22T11:06:00.752Z,24
2017-12-22T11:07:08.838Z,24
2017-12-22T11:08:16.928Z,28
2017-12-22T11:09:25.012Z,24
2017-12-22T11:10:33.097Z,28
2017-12-22T11:11:41.183Z,28
2017-12-22T11:12:49.274Z,28
2017-12-22T11:13:57.373Z,28
2017-12-22T11:15:05.445Z,28
2017-12-22T11:16:13.528Z,32
2017-12-22T11:17:21.612Z,32
2017-12-22T11:18:29.704Z,32
2017-12-22T11:19:37.786Z,32
2017-12-22T11:20:45.871Z,32
2017-12-22T11:21:53.959Z,32
2017-12-22T11:23:02.043Z,32
2017-12-22T11:24:10.137Z,36
2017-12-22T11:25:18.228Z,36
2017-12-22T11:26:26.304Z,36
2017-12-22T11:27:34.424Z,36
2017-12-22T11:28:42.476Z,36
2017-12-22T11:29:50.562Z,36
2017-12-22T11:30:58.648Z,36
2017-12-22T11:32:06.735Z,40
2017-12-22T11:33:14.820Z,40
2017-12-22T11:34:22.906Z,36
2017-12-22T11:35:30.994Z,36
2017-12-22T11:36:39.081Z,36
2017-12-22T11:37:47.166Z,32
2017-12-22T11:38:55.255Z,32
2017-12-22T11:40:03.337Z,36
2017-12-22T11:41:11.430Z,32
2017-12-22T11:42:19.516Z,32
2017-12-22T11:43:27.608Z,36
2017-12-22T11:44:35.697Z,36
2017-12-22T11:45:43.776Z,36
2017-12-22T11:46:51.864Z,36
2017-12-22T11:47:59.949Z,40
2017-12-22T11:49:08.038Z,36
2017-12-22T11:50:16.161Z,32
2017-12-22T11:51:24.208Z,36
2017-12-22T11:52:32.299Z,32
2017-12-22T11:53:40.406Z,32
2017-12-22T11:54:48.469Z,36
2017-12-22T11:55:56.559Z,32
2017-12-22T11:57:04.641Z,32
2017-12-22T11:58:12.726Z,32
2017-12-22T11:59:20.812Z,32
2017-12-22T12:00:28.899Z,32
2017-12-22T12:01:36.985Z,36
2017-12-22T12:02:45.132Z,32
2017-12-22T12:03:53.157Z,32
2017-12-22T12:05:02.302Z,32
2017-12-22T12:06:09.336Z,28
2017-12-22T12:07:17.419Z,24
2017-12-22T12:08:25.508Z,24
2017-12-22T12:09:33.594Z,24
2017-12-22T12:10:41.691Z,24
2017-12-22T12:11:49.766Z,24
2017-12-22T12:12:57.856Z,24
2017-12-22T12:14:05.943Z,24
2017-12-22T12:15:14.029Z,24
2017-12-22T12:16:22.116Z,24
2017-12-22T12:17:30.200Z,24
2017-12-22T12:18:38.289Z,24
2017-12-22T12:19:46.384Z,24
2017-12-22T12:20:54.480Z,24
2017-12-22T12:22:02.564Z,24
2017-12-22T12:23:10.651Z,28
2017-12-22T12:24:18.737Z,28
2017-12-22T12:25:26.824Z,32
2017-12-22T12:26:34.909Z,28
2017-12-22T12:27:42.994Z,32
2017-12-22T12:28:51.079Z,28
2017-12-22T12:29:59.181Z,28
2017-12-22T12:31:07.250Z,28
2017-12-22T12:32:15.336Z,28
2017-12-22T12:33:23.425Z,28
2017-12-22T12:34:31.506Z,28
2017-12-22T12:35:39.593Z,28
2017-12-22T12:36:47.678Z,24
2017-12-22T12:37:55.765Z,24
2017-12-22T12:39:03.850Z,24
2017-12-22T12:40:11.935Z,24
2017-12-22T12:41:20.020Z,24
2017-12-22T12:42:28.108Z,24
2017-12-22T12:43:36.193Z,24
2017-12-22T12:44:44.279Z,24
2017-12-22T12:45:52.364Z,20
2017-12-22T12:47:00.458Z,24
2017-12-22T12:48:08.565Z,20
2017-12-22T12:49:16.631Z,24
2017-12-22T12:50:24.719Z,20
2017-12-22T12:51:32.804Z,20
2017-12-22T12:52:40.891Z,20
2017-12-22T12:53:48.977Z,20
2017-12-22T12:54:57.063Z,24
2017-12-22T12:56:05.152Z,20
2017-12-22T12:57:13.237Z,20
2017-12-22T12:58:21.322Z,24
2017-12-22T12:59:29.407Z,24
2017-12-22T13:00:37.495Z,20
2017-12-22T13:01:45.586Z,24
2017-12-22T13:02:53.670Z,20
2017-12-22T13:04:01.754Z,24
2017-12-22T13:05:09.842Z,28
2017-12-22T13:06:17.940Z,24
2017-12-22T13:07:26.015Z,24
2017-12-22T13:08:34.099Z,24
2017-12-22T13:09:42.203Z,24
2017-12-22T13:10:50.276Z,20
2017-12-22T13:11:58.364Z,20
2017-12-22T13:13:06.449Z,24
2017-12-22T13:14:14.540Z,20
2017-12-22T13:15:22.622Z,20
2017-12-22T13:16:30.704Z,20
2017-12-22T13:17:38.790Z,16
2017-12-22T13:18:46.878Z,20
2017-12-22T13:19:54.962Z,20
2017-12-22T13:21:03.046Z,20
2017-12-22T13:22:11.132Z,24
2017-12-22T13:23:19.221Z,32
2017-12-22T13:24:27.302Z,28
2017-12-22T13:25:35.405Z,28
2017-12-22T13:26:43.473Z,32
2017-12-22T13:27:51.571Z,28
2017-12-22T13:28:59.652Z,28
2017-12-22T13:30:07.737Z,32
2017-12-22T13:31:15.820Z,24
2017-12-22T13:32:23.905Z,24
2017-12-22T13:33:31.990Z,20
2017-12-22T13:34:40.075Z,20
2017-12-22T13:35:48.162Z,20
2017-12-22T13:36:56.248Z,20
2017-12-22T13:38:04.341Z,20
2017-12-22T13:39:12.428Z,24
2017-12-22T13:40:20.517Z,24
2017-12-22T13:41:28.662Z,24
2017-12-22T13:42:36.680Z,28
2017-12-22T13:43:44.770Z,28
2017-12-22T13:44:52.859Z,28
2017-12-22T13:46:00.946Z,28
2017-12-22T13:47:09.029Z,28
2017-12-22T13:48:17.115Z,28
2017-12-22T13:49:25.199Z,24
2017-12-22T13:50:33.287Z,28
2017-12-22T13:51:41.615Z,28
2017-12-22T13:52:49.464Z,28
2017-12-22T13:53:57.549Z,28
2017-12-22T13:55:05.636Z,28
2017-12-22T13:56:13.721Z,32
2017-12-22T13:57:21.812Z,28
2017-12-22T13:58:29.891Z,28
2017-12-22T13:59:37.975Z,28
2017-12-22T14:00:46.059Z,28
2017-12-22T14:01:54.145Z,24
2017-12-22T14:03:02.233Z,24
2017-12-22T14:04:10.315Z,24
2017-12-22T14:05:18.400Z,28
2017-12-22T14:06:26.485Z,24
2017-12-22T14:07:34.574Z,24
2017-12-22T14:08:42.656Z,24
2017-12-22T14:09:50.745Z,24
2017-12-22T14:10:58.823Z,24
2017-12-22T14:12:06.907Z,24
2017-12-22T14:13:14.992Z,20
2017-12-22T14:14:23.078Z,24
2017-12-22T14:15:31.167Z,20
2017-12-22T14:16:39.258Z,16
2017-12-22T14:17:47.333Z,16
2017-12-22T14:18:55.424Z,16
2017-12-22T14:20:03.515Z,12
2017-12-22T14:21:11.609Z,12
2017-12-22T14:22:19.688Z,12
2017-12-22T14:23:27.773Z,8
2017-12-22T14:24:35.862Z,8
2017-12-22T14:25:43.944Z,8
2017-12-22T14:26:52.027Z,12
2017-12-22T14:28:00.116Z,12
2017-12-22T14:29:08.199Z,8
2017-12-22T14:30:16.283Z,12
2017-12-22T14:31:24.370Z,8
2017-12-22T14:32:32.453Z,8
2017-12-22T14:33:40.538Z,8
2017-12-22T14:34:48.624Z,4
2017-12-22T14:35:56.705Z,8
2017-12-22T14:37:04.790Z,8
2017-12-22T14:38:12.875Z,4
2017-12-22T14:39:21.023Z,8
2017-12-22T14:40:29.044Z,8
2017-12-22T14:41:37.148Z,4
2017-12-22T14:42:45.461Z,8
2017-12-22T14:43:53.309Z,4
2017-12-22T14:45:01.395Z,4
2017-12-22T14:46:09.494Z,4
2017-12-22T14:47:17.572Z,4
2017-12-22T14:48:25.658Z,4
2017-12-22T14:49:33.742Z,4
2017-12-22T14:50:41.835Z,8
2017-12-22T14:51:49.911Z,4
2017-12-22T14:52:57.994Z,4
2017-12-22T14:54:06.079Z,4
2017-12-22T14:55:14.166Z,4
2017-12-22T14:56:22.266Z,0
2017-12-22T14:57:30.332Z,4
2017-12-22T14:58:38.418Z,4
2017-12-22T14:59:46.507Z,4
2017-12-22T15:00:54.592Z,4
2017-12-22T15:02:02.670Z,4
2017-12-22T15:03:10.754Z,0
2017-12-22T15:04:18.840Z,0
2017-12-22T15:05:27.042Z,0
2017-12-22T15:06:35.131Z,0
2017-12-22T15:07:43.212Z,4
2017-12-22T15:08:51.296Z,4
2017-12-22T15:09:59.384Z,4
2017-12-22T15:11:07.467Z,4
2017-12-22T15:12:15.551Z,4
2017-12-22T15:13:23.632Z,4
2017-12-22T15:14:31.718Z,4
2017-12-22T15:15:39.803Z,4
2017-12-22T15:16:47.887Z,4
2017-12-22T15:17:55.970Z,0
2017-12-22T15:19:04.054Z,0
2017-12-22T15:20:12.140Z,0
2017-12-22T15:21:20.227Z,4
2017-12-22T15:22:28.307Z,4
2017-12-22T15:23:36.394Z,4
2017-12-22T15:24:44.485Z,0
2017-12-22T15:25:52.569Z,0
2017-12-22T15:27:00.656Z,0
2017-12-22T15:28:08.729Z,0
2017-12-22T15:29:16.817Z,0
2017-12-22T15:30:24.899Z,0
2017-12-22T15:31:32.984Z,0
2017-12-22T15:32:41.089Z,0
2017-12-22T15:33:49.149Z,0
2017-12-22T15:34:57.248Z,0
2017-12-22T15:36:05.315Z,0
2017-12-22T15:37:13.428Z,0
2017-12-22T15:38:21.499Z,0
2017-12-22T15:39:29.591Z,0
2017-12-22T15:40:37.661Z,0
2017-12-22T15:41:45.743Z,0
2017-12-22T15:42:53.832Z,0
2017-12-22T15:44:01.910Z,0
2017-12-22T15:45:09.994Z,0
2017-12-22T15:46:18.081Z,0
2017-12-22T15:47:26.173Z,0
2017-12-22T15:48:34.254Z,0
2017-12-22T15:49:42.355Z,0
2017-12-22T15:50:50.421Z,0
2017-12-22T15:51:58.506Z,0
2017-12-22T15:53:06.594Z,0
2017-12-22T15:54:14.685Z,0
2017-12-22T15:55:22.931Z,0
2017-12-22T15:56:31.026Z,0
2017-12-22T15:57:39.101Z,0
2017-12-22T15:58:47.215Z,0
2017-12-22T15:59:55.266Z,0
2017-12-22T16:01:03.349Z,0
2017-12-22T16:02:11.453Z,0
2017-12-22T16:03:19.541Z,0
2017-12-22T16:04:27.614Z,0
2017-12-22T16:05:35.696Z,0
2017-12-22T16:06:43.770Z,0
2017-12-22T16:07:51.853Z,0
2017-12-22T16:08:59.937Z,0
2017-12-22T16:10:08.031Z,0
2017-12-22T16:11:16.115Z,0
2017-12-22T16:12:24.189Z,0
2017-12-22T16:13:32.292Z,0
2017-12-22T16:14:40.367Z,0
2017-12-22T16:15:48.441Z,0
2017-12-22T16:16:56.537Z,0
2017-12-22T16:18:04.610Z,0
2017-12-22T16:19:12.705Z,0
2017-12-22T16:20:20.777Z,0
2017-12-22T16:21:29.405Z,0
2017-12-22T16:22:37.473Z,0
2017-12-22T16:23:45.564Z,0
2017-12-22T16:24:53.624Z,0
2017-12-22T16:26:01.710Z,0
2017-12-22T16:27:09.794Z,0
2017-12-22T16:28:17.879Z,0
2017-12-22T16:29:25.962Z,0
2017-12-22T16:30:34.056Z,0
2017-12-22T16:31:42.130Z,0
2017-12-22T16:32:50.226Z,0
2017-12-22T16:33:58.301Z,0